Time;durP1;ratioP1;P1;durP2;ratioP2;P2;SDS_P1;SDS_P2;PMS_P1;PMS_P2;Temp;Humidity;BMP_temperature;BMP_pressure;BME280_temperature;BME280_humidity;BME280_pressure;Samples;Min_cycle;Max_cycle;Signal;HPM_P1;HPM_P2
2024/04/15 00:02:20;;;;;;;5.93;2.50;;;14.20;75.60;;;;;;5490422;26;20837;-72
2024/04/15 00:04:49;;;;;;;3.70;2.10;;;14.20;76.00;;;;;;5489739;26;20533;-71
2024/04/15 00:07:18;;;;;;;8.80;3.50;;;14.20;76.00;;;;;;5490159;26;20537;-71
2024/04/15 00:09:48;;;;;;;4.57;2.50;;;14.10;76.10;;;;;;5489888;26;20556;-73
2024/04/15 00:12:17;;;;;;;5.17;1.77;;;14.10;76.70;;;;;;5490226;26;20477;-71
2024/04/15 00:14:43;;;;;;;4.50;2.10;;;14.10;76.50;;;;;;5489667;26;20963;-71
2024/04/15 00:17:12;;;;;;;5.70;2.10;;;14.10;76.70;;;;;;5489889;26;20876;-72
2024/04/15 00:19:38;;;;;;;3.30;1.57;;;14.00;76.30;;;;;;5489333;26;20537;-71
2024/04/15 00:22:13;;;;;;;6.40;1.93;;;14.00;76.80;;;;;;5490294;26;20462;-71
2024/04/15 00:24:39;;;;;;;5.00;2.50;;;13.90;76.70;;;;;;5489548;26;20655;-72
2024/04/15 00:27:12;;;;;;;3.67;2.17;;;13.90;76.80;;;;;;5489875;26;20482;-71
2024/04/15 00:29:38;;;;;;;4.53;2.60;;;13.90;77.10;;;;;;5489488;26;20482;-71
2024/04/15 00:32:07;;;;;;;6.47;1.60;;;13.90;77.00;;;;;;5489806;26;20474;-71
2024/04/15 00:34:33;;;;;;;4.30;2.07;;;13.80;77.60;;;;;;5490028;26;20840;-71
2024/04/15 00:37:01;;;;;;;7.30;2.13;;;13.70;77.70;;;;;;5489472;26;20584;-71
2024/04/15 00:39:30;;;;;;;3.07;2.03;;;13.70;78.10;;;;;;5489718;26;20597;-71
2024/04/15 00:41:59;;;;;;;4.83;2.07;;;13.70;78.30;;;;;;5489012;26;20485;-71
2024/04/15 00:44:31;;;;;;;3.57;1.80;;;13.60;78.60;;;;;;5489580;26;20617;-71
2024/04/15 00:46:59;;;;;;;4.60;2.00;;;13.60;78.80;;;;;;5489022;26;20534;-71
2024/04/15 00:49:25;;;;;;;4.73;1.87;;;13.60;78.70;;;;;;5489538;26;20541;-71
2024/04/15 00:51:56;;;;;;;4.50;2.00;;;13.60;79.00;;;;;;5489172;26;20458;-72
2024/04/15 00:54:21;;;;;;;6.60;2.77;;;13.60;79.30;;;;;;5489322;26;20493;-72
2024/04/15 00:56:53;;;;;;;5.10;1.67;;;13.50;79.50;;;;;;5489000;26;20529;-72
2024/04/15 00:59:20;;;;;;;4.17;2.27;;;13.50;79.70;;;;;;5492112;26;20533;-72
2024/04/15 01:01:48;;;;;;;10.40;2.30;;;13.50;79.80;;;;;;5492620;26;20477;-73
2024/04/15 01:04:14;;;;;;;4.97;2.13;;;13.40;80.10;;;;;;5493112;26;20541;-72
2024/04/15 01:06:43;;;;;;;4.47;2.20;;;13.40;80.30;;;;;;5492396;26;20650;-73
2024/04/15 01:09:09;;;;;;;10.05;3.25;;;13.40;80.50;;;;;;5492890;26;20850;-72
2024/04/15 01:11:38;;;;;;;5.03;2.30;;;13.40;80.60;;;;;;5492963;26;20337;-72
2024/04/15 01:14:07;;;;;;;6.97;3.20;;;13.40;80.70;;;;;;5492712;26;20553;-73
2024/04/15 01:16:39;;;;;;;7.50;3.63;;;13.40;81.00;;;;;;5492623;26;20790;-72
2024/04/15 01:19:05;;;;;;;3.30;2.50;;;13.40;81.00;;;;;;5492296;26;20552;-72
2024/04/15 01:21:34;;;;;;;5.57;2.97;;;13.40;81.90;;;;;;5493048;26;20522;-72
2024/04/15 01:24:03;;;;;;;18.80;3.37;;;13.40;81.20;;;;;;5492318;26;20540;-72
2024/04/15 01:26:32;;;;;;;5.15;2.83;;;13.40;81.20;;;;;;5492594;26;20465;-73
2024/04/15 01:28:58;;;;;;;4.07;2.23;;;13.40;81.30;;;;;;5492134;26;20363;-72
2024/04/15 01:31:27;;;;;;;4.20;2.90;;;13.40;81.30;;;;;;5492638;26;20848;-73
2024/04/15 01:33:53;;;;;;;6.57;2.53;;;13.50;81.30;;;;;;5492130;26;20557;-72
2024/04/15 01:36:21;;;;;;;4.67;2.93;;;13.50;81.20;;;;;;5492728;26;20485;-72
2024/04/15 01:38:47;;;;;;;7.63;2.20;;;13.50;81.20;;;;;;5491815;26;20975;-72
2024/04/15 01:41:18;;;;;;;3.27;2.30;;;13.50;82.00;;;;;;5492443;26;20592;-71
2024/04/15 01:43:44;;;;;;;8.70;3.60;;;13.50;81.00;;;;;;5492231;26;20598;-72
2024/04/15 01:46:13;;;;;;;3.40;1.90;;;13.40;80.50;;;;;;5492169;26;20473;-71
2024/04/15 01:48:39;;;;;;;2.87;1.67;;;13.40;80.40;;;;;;5492344;26;20607;-72
2024/04/15 01:51:07;;;;;;;3.73;1.90;;;13.40;80.20;;;;;;5492230;26;20477;-71
2024/04/15 01:53:33;;;;;;;3.47;2.50;;;13.40;80.10;;;;;;5492204;26;20549;-72
2024/04/15 01:56:02;;;;;;;5.90;3.43;;;13.40;79.90;;;;;;5491864;26;20576;-71
2024/04/15 01:58:30;;;;;;;4.60;3.00;;;13.40;80.00;;;;;;5491674;26;20836;-71
2024/04/15 02:01:05;;;;;;;7.00;2.93;;;13.50;80.00;;;;;;5491592;26;20786;-71
2024/04/15 02:03:31;;;;;;;6.68;2.70;;;13.50;79.70;;;;;;5492306;26;20777;-71
2024/04/15 02:06:00;;;;;;;8.70;3.40;;;13.50;79.40;;;;;;5491612;26;20248;-72
2024/04/15 02:08:26;;;;;;;3.35;2.05;;;13.50;79.40;;;;;;5491916;26;20561;-72
2024/04/15 02:10:57;;;;;;;5.30;2.60;;;13.60;79.50;;;;;;5491451;26;20341;-72
2024/04/15 02:13:23;;;;;;;5.00;2.47;;;13.60;79.80;;;;;;5491955;26;20786;-72
2024/04/15 02:15:54;;;;;;;5.90;3.60;;;13.60;80.00;;;;;;5491715;26;20512;-72
2024/04/15 02:18:20;;;;;;;4.30;2.23;;;13.60;80.10;;;;;;5491526;26;20553;-71
2024/04/15 02:20:48;;;;;;;5.87;2.17;;;13.60;80.40;;;;;;5491565;26;20580;-71
2024/04/15 02:23:14;;;;;;;3.43;1.77;;;13.70;80.60;;;;;;5491858;26;20541;-72
2024/04/15 02:25:44;;;;;;;6.13;2.57;;;13.70;80.80;;;;;;5491823;26;20635;-72
2024/04/15 02:28:10;;;;;;;4.03;2.13;;;13.70;81.00;;;;;;5491610;26;21046;-72
2024/04/15 02:30:39;;;;;;;7.00;3.93;;;13.70;80.60;;;;;;5491640;26;20481;-72
2024/04/15 02:33:07;;;;;;;4.53;2.50;;;13.70;80.60;;;;;;5491154;26;20537;-72
2024/04/15 02:35:36;;;;;;;6.90;2.40;;;13.70;80.50;;;;;;5491842;26;20481;-71
2024/04/15 02:38:02;;;;;;;7.97;3.60;;;13.70;80.30;;;;;;5490984;26;20552;-71
2024/04/15 02:40:31;;;;;;;7.87;3.13;;;13.70;79.30;;;;;;5491705;26;20947;-71
2024/04/15 02:42:58;;;;;;;5.57;3.40;;;13.70;78.70;;;;;;5491152;26;20474;-71
2024/04/15 02:45:26;;;;;;;4.97;2.60;;;13.70;78.60;;;;;;5491347;26;20538;-71
2024/04/15 02:47:52;;;;;;;6.53;2.50;;;13.70;78.50;;;;;;5490765;26;20545;-71
2024/04/15 02:50:23;;;;;;;6.90;4.07;;;13.70;78.00;;;;;;5491770;26;20883;-71
2024/04/15 02:52:49;;;;;;;5.45;3.72;;;13.70;78.20;;;;;;5491433;26;20537;-71
2024/04/15 02:55:18;;;;;;;7.33;2.77;;;13.70;78.30;;;;;;5491269;26;20448;-71
2024/04/15 02:57:44;;;;;;;5.40;2.40;;;13.70;78.30;;;;;;5491501;26;20605;-71
2024/04/15 03:00:13;;;;;;;4.20;2.30;;;13.70;78.30;;;;;;5490783;26;20836;-71
2024/04/15 03:02:39;;;;;;;4.63;2.27;;;13.70;78.30;;;;;;5491499;26;20615;-71
2024/04/15 03:05:08;;;;;;;7.57;3.00;;;13.70;78.40;;;;;;5491146;26;20787;-71
2024/04/15 03:07:36;;;;;;;3.13;1.87;;;13.70;78.40;;;;;;5491120;26;20545;-71
2024/04/15 03:10:05;;;;;;;7.67;2.30;;;13.60;78.20;;;;;;5490687;26;21095;-71
2024/04/15 03:12:31;;;;;;;4.43;2.13;;;13.60;78.20;;;;;;5491361;26;20537;-71
2024/04/15 03:14:59;;;;;;;5.90;2.97;;;13.60;78.40;;;;;;5490412;26;20474;-71
2024/04/15 03:17:25;;;;;;;6.10;2.95;;;13.60;78.60;;;;;;5490716;26;20541;-71
2024/04/15 03:19:54;;;;;;;4.20;1.90;;;13.60;78.80;;;;;;5490577;26;20624;-71
2024/04/15 03:22:20;;;;;;;3.30;1.43;;;13.50;78.60;;;;;;5489998;26;20540;-71
2024/04/15 03:24:52;;;;;;;8.07;2.80;;;13.50;78.90;;;;;;5490928;26;20485;-71
2024/04/15 03:27:19;;;;;;;4.78;2.75;;;13.40;79.00;;;;;;5490528;26;21556;-71
2024/04/15 03:29:48;;;;;;;6.63;2.55;;;13.50;79.30;;;;;;5490823;26;20248;-71
2024/04/15 03:32:13;;;;;;;8.68;2.30;;;13.40;79.30;;;;;;5490354;26;20303;-71
2024/04/15 03:34:42;;;;;;;7.43;3.37;;;13.40;79.70;;;;;;5490984;26;20337;-71
2024/04/15 03:37:11;;;;;;;3.90;2.10;;;13.40;80.00;;;;;;5490005;26;20553;-71
2024/04/15 03:39:39;;;;;;;5.30;1.65;;;13.40;80.10;;;;;;5490512;26;20625;-71
2024/04/15 03:42:10;;;;;;;3.78;1.50;;;13.40;80.10;;;;;;5490487;26;20300;-72
2024/04/15 03:44:36;;;;;;;6.93;1.90;;;13.30;79.80;;;;;;5490583;26;20316;-71
2024/04/15 03:47:05;;;;;;;5.47;2.00;;;13.20;79.30;;;;;;5490196;26;20481;-72
2024/04/15 03:49:31;;;;;;;3.97;1.37;;;13.20;79.40;;;;;;5490663;26;20614;-72
2024/04/15 03:52:00;;;;;;;3.30;1.90;;;13.20;79.00;;;;;;5490267;26;20489;-72
2024/04/15 03:54:26;;;;;;;4.18;1.75;;;13.10;79.00;;;;;;5490700;26;20534;-72
2024/04/15 03:56:54;;;;;;;2.70;1.80;;;13.10;79.50;;;;;;5490468;26;20308;-72
2024/04/15 03:59:23;;;;;;;5.78;2.85;;;13.00;80.10;;;;;;5489645;26;21061;-72
2024/04/15 04:01:51;;;;;;;7.90;2.83;;;13.00;80.40;;;;;;5490371;26;20248;-72
2024/04/15 04:04:18;;;;;;;7.68;2.65;;;12.90;80.60;;;;;;5489832;26;20284;-72
2024/04/15 04:06:47;;;;;;;5.28;2.95;;;12.90;80.50;;;;;;5490204;26;20252;-72
2024/04/15 04:09:13;;;;;;;7.13;2.90;;;13.00;80.60;;;;;;5489756;26;20292;-72
2024/04/15 04:11:42;;;;;;;5.30;2.80;;;12.90;80.40;;;;;;5490136;26;20323;-72
2024/04/15 04:14:08;;;;;;;5.40;2.83;;;13.00;80.60;;;;;;5489645;26;20319;-72
2024/04/15 04:16:41;;;;;;;6.60;3.27;;;13.00;80.60;;;;;;5489981;26;20321;-72
2024/04/15 04:19:07;;;;;;;4.00;2.47;;;13.00;80.90;;;;;;5489561;26;20552;-72
2024/04/15 04:21:35;;;;;;;14.20;5.13;;;13.10;81.00;;;;;;5490053;26;20643;-72
2024/04/15 04:24:01;;;;;;;4.68;3.13;;;13.00;81.30;;;;;;5489469;26;20624;-72
2024/04/15 04:26:30;;;;;;;7.70;1.90;;;13.00;81.90;;;;;;5489986;26;20252;-72
2024/04/15 04:28:57;;;;;;;6.63;2.63;;;13.00;82.10;;;;;;5489649;26;20490;-72
2024/04/15 04:31:26;;;;;;;5.93;2.97;;;13.00;82.30;;;;;;5489745;26;20240;-72
2024/04/15 04:33:54;;;;;;;5.18;1.92;;;13.00;82.60;;;;;;5492032;26;20316;-72
2024/04/15 04:36:35;;;;;;;6.22;2.35;;;13.00;82.60;;;;;;5492785;26;20248;-72
2024/04/15 04:39:01;;;;;;;5.72;2.10;;;13.00;82.80;;;;;;5492734;26;20665;-71
2024/04/15 04:41:34;;;;;;;6.45;2.78;;;13.00;82.70;;;;;;5493323;26;20341;-72
2024/04/15 04:44:00;;;;;;;3.45;1.88;;;13.00;82.80;;;;;;5492863;26;20725;-71
2024/04/15 04:46:29;;;;;;;10.50;2.77;;;13.00;83.00;;;;;;5493165;26;20247;-71
2024/04/15 04:48:58;;;;;;;15.80;3.20;;;13.00;83.00;;;;;;5493086;26;20548;-71
2024/04/15 04:51:27;;;;;;;8.93;4.15;;;13.00;82.80;;;;;;5492642;26;20256;-72
2024/04/15 04:53:52;;;;;;;6.97;2.07;;;13.00;83.00;;;;;;5493028;26;20315;-71
2024/04/15 04:56:21;;;;;;;6.77;3.27;;;13.00;83.00;;;;;;5492635;26;20592;-71
2024/04/15 04:58:54;;;;;;;6.55;2.30;;;13.00;83.00;;;;;;5492624;26;20549;-71
2024/04/15 05:01:22;;;;;;;7.85;2.50;;;13.00;83.20;;;;;;5491749;26;20301;-71
2024/04/15 05:03:49;;;;;;;5.70;2.70;;;12.90;83.20;;;;;;5492864;26;20361;-72
2024/04/15 05:06:24;;;;;;;8.27;2.30;;;13.00;83.10;;;;;;5492432;26;20248;-73
2024/04/15 05:08:50;;;;;;;11.93;3.40;;;12.90;83.20;;;;;;5492759;26;20365;-73
2024/04/15 05:11:19;;;;;;;9.67;3.27;;;12.90;83.50;;;;;;5492402;26;20260;-73
2024/04/15 05:13:45;;;;;;;5.60;2.83;;;12.90;83.60;;;;;;5492688;26;20624;-73
2024/04/15 05:16:15;;;;;;;7.40;4.00;;;12.80;83.50;;;;;;5492105;26;20686;-73
2024/04/15 05:18:43;;;;;;;6.65;3.45;;;12.80;83.70;;;;;;5492689;26;20557;-73
2024/04/15 05:21:16;;;;;;;9.70;2.65;;;12.80;84.20;;;;;;5492453;26;20694;-72
2024/04/15 05:23:48;;;;;;;3.42;2.40;;;12.80;84.50;;;;;;5492596;26;20245;-72
2024/04/15 05:26:14;;;;;;;5.60;2.33;;;12.80;84.70;;;;;;5492058;26;20292;-72
2024/04/15 05:28:42;;;;;;;4.90;2.37;;;12.90;84.60;;;;;;5492265;26;20251;-72
2024/04/15 05:31:08;;;;;;;7.63;2.22;;;12.90;84.70;;;;;;5492342;26;21158;-72
2024/04/15 05:33:37;;;;;;;6.07;2.47;;;12.90;84.90;;;;;;5492383;26;20265;-71
2024/04/15 05:36:03;;;;;;;4.40;2.20;;;12.90;85.00;;;;;;5492522;26;20542;-71
2024/04/15 05:38:32;;;;;;;6.63;3.35;;;12.90;84.80;;;;;;5491753;26;20240;-72
2024/04/15 05:41:01;;;;;;;6.10;3.40;;;13.00;84.60;;;;;;5492518;26;20746;-72
2024/04/15 05:43:29;;;;;;;9.45;3.20;;;13.00;84.50;;;;;;5491597;26;20514;-72
2024/04/15 05:45:55;;;;;;;8.85;3.58;;;13.10;84.10;;;;;;5492370;26;20316;-73
2024/04/15 05:48:24;;;;;;;8.10;3.33;;;13.10;84.10;;;;;;5491862;26;20249;-72
2024/04/15 05:50:49;;;;;;;3.90;2.22;;;13.10;83.60;;;;;;5492393;26;20601;-73
2024/04/15 05:53:20;;;;;;;6.23;3.43;;;13.10;83.50;;;;;;5491645;26;20252;-73
2024/04/15 05:55:47;;;;;;;8.45;4.45;;;13.10;83.50;;;;;;5492301;26;20558;-72
2024/04/15 05:58:18;;;;;;;13.45;5.88;;;13.10;83.60;;;;;;5491819;26;20604;-72
2024/04/15 06:00:44;;;;;;;7.97;4.32;;;13.10;83.90;;;;;;5491992;26;20299;-73
2024/04/15 06:03:13;;;;;;;5.97;4.80;;;13.10;84.20;;;;;;5491644;26;20345;-73
2024/04/15 06:05:39;;;;;;;7.78;4.07;;;13.10;83.90;;;;;;5492018;26;20947;-73
2024/04/15 06:08:09;;;;;;;7.30;2.73;;;13.20;83.60;;;;;;5492086;26;20290;-72
2024/04/15 06:10:34;;;;;;;6.73;3.73;;;13.20;83.10;;;;;;5491527;26;20525;-72
2024/04/15 06:13:03;;;;;;;6.57;3.80;;;13.30;82.70;;;;;;5492066;26;20477;-73
2024/04/15 06:15:36;;;;;;;5.43;3.10;;;13.30;82.70;;;;;;5491201;26;21082;-72
2024/04/15 06:18:06;;;;;;;4.77;2.20;;;13.40;82.60;;;;;;5491575;26;20470;-72
2024/04/15 06:20:32;;;;;;;5.80;1.83;;;13.50;80.90;;;;;;5491611;26;20537;-73
2024/04/15 06:23:01;;;;;;;4.40;2.00;;;13.40;80.20;;;;;;5492023;26;20588;-72
2024/04/15 06:25:27;;;;;;;5.10;2.15;;;13.50;80.10;;;;;;5491380;26;20891;-73
2024/04/15 06:27:55;;;;;;;9.90;2.80;;;13.50;80.00;;;;;;5491846;26;20318;-73
2024/04/15 06:30:21;;;;;;;7.90;2.37;;;13.50;80.20;;;;;;5490988;26;20545;-72
2024/04/15 06:32:52;;;;;;;7.80;2.53;;;13.60;80.20;;;;;;5491659;26;20584;-72
2024/04/15 06:35:18;;;;;;;2.83;1.40;;;13.60;79.90;;;;;;5491334;26;20473;-72
2024/04/15 06:37:47;;;;;;;4.23;1.70;;;13.60;79.70;;;;;;5491517;26;20478;-72
2024/04/15 06:40:13;;;;;;;5.83;1.90;;;13.60;79.70;;;;;;5490387;26;20541;-72
2024/04/15 06:42:42;;;;;;;5.87;1.60;;;13.70;79.70;;;;;;5491836;26;20579;-72
2024/04/15 06:45:08;;;;;;;3.57;1.50;;;13.60;79.30;;;;;;5491307;26;20556;-72
2024/04/15 06:47:36;;;;;;;10.53;2.27;;;13.70;79.40;;;;;;5490767;26;20910;-72
2024/04/15 06:50:05;;;;;;;6.72;2.20;;;13.70;79.80;;;;;;5491596;26;20898;-73
2024/04/15 06:52:34;;;;;;;13.37;2.90;;;13.60;79.90;;;;;;5491479;26;20284;-72
2024/04/15 06:55:00;;;;;;;3.70;2.47;;;13.70;80.10;;;;;;5491071;26;20617;-72
2024/04/15 06:57:28;;;;;;;8.27;2.83;;;13.70;80.10;;;;;;5490065;26;20490;-73
2024/04/15 06:59:55;;;;;;;7.83;2.70;;;13.80;80.60;;;;;;5491210;26;20616;-72
2024/04/15 07:02:24;;;;;;;9.60;2.20;;;13.80;80.70;;;;;;5490827;26;20485;-72
2024/04/15 07:04:50;;;;;;;6.50;2.30;;;13.90;80.90;;;;;;5491418;26;20559;-72
2024/04/15 07:07:25;;;;;;;10.33;2.57;;;13.90;80.90;;;;;;5490561;26;20474;-72
2024/04/15 07:09:52;;;;;;;5.03;2.50;;;14.00;81.00;;;;;;5490800;26;20489;-72
2024/04/15 07:12:20;;;;;;;5.20;2.57;;;14.00;80.60;;;;;;5491070;26;20536;-72
2024/04/15 07:14:46;;;;;;;4.80;2.00;;;14.00;80.50;;;;;;5490984;26;20492;-73
2024/04/15 07:17:15;;;;;;;5.00;2.30;;;14.10;80.80;;;;;;5490768;26;20477;-72
2024/04/15 07:19:41;;;;;;;7.97;2.57;;;14.10;80.90;;;;;;5490590;26;20482;-71
2024/04/15 07:22:09;;;;;;;7.57;3.57;;;14.10;81.40;;;;;;5491064;26;20584;-72
2024/04/15 07:24:38;;;;;;;7.80;3.00;;;14.20;81.70;;;;;;5490578;26;20541;-72
2024/04/15 07:27:07;;;;;;;9.40;3.50;;;14.30;81.70;;;;;;5490864;26;20462;-72
2024/04/15 07:29:33;;;;;;;5.63;2.80;;;14.40;82.10;;;;;;5490132;26;20912;-72
2024/04/15 07:32:02;;;;;;;10.20;2.73;;;14.40;81.60;;;;;;5490874;26;20466;-72
2024/04/15 07:34:28;;;;;;;4.33;2.97;;;14.50;82.20;;;;;;5490561;26;20486;-73
2024/04/15 07:36:56;;;;;;;6.07;2.23;;;14.50;81.20;;;;;;5490696;26;20584;-72
2024/04/15 07:39:22;;;;;;;7.57;2.70;;;14.60;81.50;;;;;;5489993;26;20544;-72
2024/04/15 07:41:53;;;;;;;4.47;2.10;;;14.60;82.70;;;;;;5490793;26;20882;-72
2024/04/15 07:44:19;;;;;;;7.40;2.63;;;14.70;83.20;;;;;;5490107;26;20545;-72
2024/04/15 07:46:48;;;;;;;4.87;2.20;;;14.70;83.80;;;;;;5490514;26;20781;-72
2024/04/15 07:49:14;;;;;;;6.13;2.63;;;14.80;84.10;;;;;;5490536;26;20617;-73
2024/04/15 07:51:42;;;;;;;12.60;2.70;;;14.80;84.50;;;;;;5490098;26;20473;-71
2024/04/15 07:54:08;;;;;;;6.13;3.30;;;14.80;85.30;;;;;;5490683;26;20610;-73
2024/04/15 07:56:37;;;;;;;5.00;2.37;;;15.00;85.40;;;;;;5490161;26;20850;-72
2024/04/15 07:59:05;;;;;;;5.20;2.30;;;15.10;85.40;;;;;;5490242;26;20477;-71
2024/04/15 08:01:34;;;;;;;4.87;3.30;;;15.20;85.60;;;;;;5490027;26;20510;-71
2024/04/15 08:04:00;;;;;;;9.03;3.40;;;15.20;86.00;;;;;;5490499;26;20549;-71
2024/04/15 08:06:28;;;;;;;8.43;3.07;;;15.30;86.30;;;;;;5489546;26;20470;-72
2024/04/15 08:08:54;;;;;;;6.77;4.27;;;15.30;86.10;;;;;;5490269;26;20616;-72
2024/04/15 08:11:23;;;;;;;5.30;2.87;;;15.30;86.80;;;;;;5489217;26;20477;-71
2024/04/15 08:13:49;;;;;;;4.87;2.50;;;15.40;87.90;;;;;;5489846;26;20604;-72
2024/04/15 08:16:21;;;;;;;6.50;3.20;;;15.50;87.20;;;;;;5490172;26;20523;-72
2024/04/15 08:18:47;;;;;;;3.87;2.53;;;15.50;87.30;;;;;;5489639;26;20525;-72
2024/04/15 08:21:16;;;;;;;5.73;3.70;;;15.50;87.40;;;;;;5489920;26;20474;-72
2024/04/15 08:23:42;;;;;;;4.20;3.37;;;15.50;87.70;;;;;;5489725;26;20545;-72
2024/04/15 08:26:11;;;;;;;6.63;3.90;;;15.50;88.00;;;;;;5490111;26;20584;-72
2024/04/15 08:28:37;;;;;;;9.80;4.50;;;15.60;88.30;;;;;;5489266;26;20473;-72
2024/04/15 08:31:06;;;;;;;7.93;4.27;;;15.70;88.90;;;;;;5490017;26;21021;-72
2024/04/15 08:33:35;;;;;;;6.50;3.77;;;15.70;89.30;;;;;;5489597;26;20485;-73
2024/04/15 08:36:04;;;;;;;5.97;4.30;;;15.70;89.50;;;;;;5489890;26;20474;-72
2024/04/15 08:38:29;;;;;;;5.43;3.90;;;15.80;89.70;;;;;;5489266;26;20878;-72
2024/04/15 08:41:00;;;;;;;6.40;3.90;;;15.80;89.80;;;;;;5489779;26;20595;-72
2024/04/15 08:43:27;;;;;;;7.93;4.33;;;15.80;90.00;;;;;;5489200;26;20474;-72
2024/04/15 08:46:00;;;;;;;6.10;3.70;;;15.80;90.10;;;;;;5489619;26;20465;-72
2024/04/15 08:48:26;;;;;;;4.10;3.57;;;15.80;90.10;;;;;;5489139;26;20864;-72
2024/04/15 08:50:59;;;;;;;6.13;3.90;;;15.80;90.00;;;;;;5489526;26;20850;-72
2024/04/15 08:53:26;;;;;;;4.97;4.43;;;15.70;90.00;;;;;;5489084;26;20589;-72
2024/04/15 08:55:54;;;;;;;4.67;3.20;;;15.70;90.10;;;;;;5489710;26;20561;-72
2024/04/15 08:58:20;;;;;;;7.03;4.20;;;15.70;88.90;;;;;;5488930;26;20549;-72
2024/04/15 09:00:51;;;;;;;5.30;3.40;;;15.70;89.70;;;;;;5488992;26;20470;-72
2024/04/15 09:03:17;;;;;;;8.80;3.53;;;15.70;89.40;;;;;;5489474;26;20900;-72
2024/04/15 09:05:46;;;;;;;5.37;2.93;;;15.80;89.70;;;;;;5488610;26;20529;-72
2024/04/15 09:08:15;;;;;;;3.87;2.73;;;15.80;89.80;;;;;;5489221;26;20477;-72
2024/04/15 09:10:43;;;;;;;3.63;2.40;;;15.90;90.00;;;;;;5488771;26;20485;-72
2024/04/15 09:13:09;;;;;;;3.63;2.90;;;15.90;90.10;;;;;;5489288;26;20599;-72
2024/04/15 09:15:38;;;;;;;3.80;3.37;;;16.00;90.40;;;;;;5488566;26;20469;-72
2024/04/15 09:18:06;;;;;;;7.33;3.03;;;16.00;90.20;;;;;;5489226;26;20788;-72
2024/04/15 09:20:35;;;;;;;6.00;3.33;;;16.10;90.30;;;;;;5491455;26;20515;-72
2024/04/15 09:23:03;;;;;;;5.87;2.73;;;16.00;89.20;;;;;;5492807;26;20959;-72
2024/04/15 09:25:34;;;;;;;4.07;2.43;;;15.90;89.70;;;;;;5492490;26;20461;-72
2024/04/15 09:28:04;;;;;;;7.30;3.13;;;16.00;90.00;;;;;;5492573;26;20893;-72
2024/04/15 09:30:33;;;;;;;4.17;2.57;;;16.10;90.00;;;;;;5491915;26;20470;-73
2024/04/15 09:33:05;;;;;;;5.50;3.40;;;16.20;89.70;;;;;;5492374;26;20532;-73
2024/04/15 09:35:34;;;;;;;7.57;2.80;;;16.20;89.00;;;;;;5492137;26;20789;-73
2024/04/15 09:38:03;;;;;;;4.50;3.27;;;16.30;88.90;;;;;;5492288;26;20484;-73
2024/04/15 09:40:36;;;;;;;4.47;2.90;;;16.20;87.90;;;;;;5492030;26;20955;-73
2024/04/15 09:43:03;;;;;;;5.33;2.30;;;16.20;88.10;;;;;;5492528;26;20553;-73
2024/04/15 09:45:32;;;;;;;4.73;3.13;;;16.10;87.90;;;;;;5492128;26;21007;-73
2024/04/15 09:47:59;;;;;;;6.20;3.40;;;16.20;88.30;;;;;;5492261;26;20564;-73
2024/04/15 09:50:30;;;;;;;3.23;2.50;;;16.20;88.50;;;;;;5492261;26;20465;-73
2024/04/15 09:52:58;;;;;;;5.73;3.00;;;16.30;88.70;;;;;;5491885;26;20544;-73
2024/04/15 09:55:38;;;;;;;6.90;3.50;;;16.30;88.60;;;;;;5492616;26;20514;-73
2024/04/15 09:58:04;;;;;;;5.13;3.30;;;16.40;88.20;;;;;;5492186;26;20946;-73
2024/04/15 10:00:33;;;;;;;3.97;2.30;;;16.40;88.00;;;;;;5491998;26;20526;-73
2024/04/15 10:03:07;;;;;;;2.63;2.40;;;16.50;88.30;;;;;;5491785;26;20744;-73
2024/04/15 10:05:41;;;;;;;3.23;2.10;;;16.60;87.90;;;;;;5492082;26;20561;-73
2024/04/15 10:08:08;;;;;;;4.33;2.50;;;16.50;86.30;;;;;;5491632;26;20584;-73
2024/04/15 10:10:41;;;;;;;5.13;2.47;;;16.70;87.10;;;;;;5491949;26;20474;-73
2024/04/15 10:13:07;;;;;;;4.90;3.30;;;16.80;87.20;;;;;;5491260;26;20470;-73
2024/04/15 10:15:36;;;;;;;6.50;2.90;;;16.90;85.30;;;;;;5492003;26;20883;-73
2024/04/15 10:18:04;;;;;;;2.90;1.77;;;16.90;85.10;;;;;;5493969;26;20540;-71
2024/04/15 10:20:35;;;;;;;3.17;2.10;;;16.90;84.80;;;;;;5491976;26;20485;-71
2024/04/15 10:23:05;;;;;;;3.10;2.17;;;16.90;84.70;;;;;;5491484;26;20597;-72
2024/04/15 10:25:34;;;;;;;3.53;1.80;;;16.90;84.10;;;;;;5491746;26;20588;-71
2024/04/15 10:28:05;;;;;;;2.37;2.00;;;16.90;84.00;;;;;;5491412;26;20545;-72
2024/04/15 10:30:36;;;;;;;7.53;2.50;;;17.00;84.10;;;;;;5491638;26;20522;-72
2024/04/15 10:33:04;;;;;;;5.03;2.10;;;17.00;83.00;;;;;;5491448;26;20478;-72
2024/04/15 10:35:35;;;;;;;3.90;1.87;;;17.00;82.10;;;;;;5491691;26;20497;-72
2024/04/15 10:38:03;;;;;;;3.70;2.00;;;16.90;82.30;;;;;;5491184;26;20553;-71
2024/04/15 10:40:32;;;;;;;2.40;1.87;;;16.90;82.70;;;;;;5491681;26;20763;-71
2024/04/15 10:42:58;;;;;;;4.40;1.90;;;16.80;82.00;;;;;;5491346;26;20469;-72
2024/04/15 10:45:30;;;;;;;5.47;2.30;;;16.90;82.50;;;;;;5491855;26;20943;-72
2024/04/15 10:47:56;;;;;;;2.50;1.90;;;16.80;82.40;;;;;;5491182;26;20545;-72
2024/04/15 10:50:25;;;;;;;4.07;1.90;;;16.70;82.80;;;;;;5491508;26;20477;-73
2024/04/15 10:52:51;;;;;;;2.60;1.70;;;16.60;83.20;;;;;;5491046;26;21000;-71
2024/04/15 10:55:21;;;;;;;2.77;1.70;;;16.60;83.60;;;;;;5491711;26;20840;-71
2024/04/15 10:57:49;;;;;;;4.50;1.90;;;16.50;83.60;;;;;;5490933;26;20605;-71
2024/04/15 11:00:19;;;;;;;3.57;2.13;;;16.40;84.30;;;;;;5491229;26;20533;-71
2024/04/15 11:02:50;;;;;;;2.17;2.00;;;16.30;84.60;;;;;;5491479;26;20552;-71
2024/04/15 11:05:19;;;;;;;2.30;1.93;;;16.30;85.20;;;;;;5490958;26;20477;-71
2024/04/15 11:07:46;;;;;;;2.10;1.90;;;16.30;85.50;;;;;;5490919;26;20606;-71
2024/04/15 11:10:16;;;;;;;3.97;2.10;;;16.30;85.70;;;;;;5490815;26;20473;-71
2024/04/15 11:12:42;;;;;;;2.20;2.00;;;16.30;86.10;;;;;;5491202;26;20869;-71
2024/04/15 11:15:12;;;;;;;3.57;1.93;;;16.10;86.10;;;;;;5490427;26;20819;-71
2024/04/15 11:17:47;;;;;;;2.00;1.80;;;16.10;86.70;;;;;;5490848;26;20928;-71
2024/04/15 11:20:16;;;;;;;3.53;2.13;;;16.10;87.60;;;;;;5490305;26;20477;-71
2024/04/15 11:22:42;;;;;;;4.60;1.77;;;16.00;86.40;;;;;;5491167;26;20565;-71
2024/04/15 11:25:11;;;;;;;4.07;2.27;;;15.90;86.20;;;;;;5490677;26;20469;-71
2024/04/15 11:27:39;;;;;;;3.60;1.93;;;15.90;86.50;;;;;;5490991;26;20622;-71
2024/04/15 11:30:12;;;;;;;3.03;2.00;;;15.90;87.10;;;;;;5490113;26;20567;-71
2024/04/15 11:32:38;;;;;;;4.27;1.70;;;15.80;87.40;;;;;;5491120;26;20609;-71
2024/04/15 11:35:11;;;;;;;4.90;1.67;;;15.80;88.10;;;;;;5490405;26;20521;-71
2024/04/15 11:37:38;;;;;;;5.30;1.80;;;15.70;88.00;;;;;;5490541;26;20483;-71
2024/04/15 11:40:07;;;;;;;5.90;3.27;;;15.70;88.30;;;;;;5490456;26;20580;-71
2024/04/15 11:42:33;;;;;;;8.77;3.83;;;15.60;90.80;;;;;;5490048;26;21087;-71
2024/04/15 11:45:07;;;;;;;6.90;4.70;;;15.50;92.80;;;;;;5489922;26;20545;-71
2024/04/15 11:47:33;;;;;;;5.20;4.70;;;15.40;94.10;;;;;;5490010;26;20612;-71
2024/04/15 11:50:03;;;;;;;5.07;3.93;;;15.30;94.20;;;;;;5466612;25;20482;-71
2024/04/15 11:52:32;;;;;;;3.40;2.50;;;15.30;94.40;;;;;;5435842;26;20562;-71
2024/04/15 11:55:04;;;;;;;3.37;2.70;;;15.20;94.50;;;;;;5462128;25;21003;-71
2024/04/15 11:57:30;;;;;;;2.73;2.47;;;15.20;94.60;;;;;;5470506;25;20521;-71
2024/04/15 12:00:00;;;;;;;2.63;2.10;;;15.20;94.90;;;;;;5478133;26;20786;-71
2024/04/15 12:02:26;;;;;;;4.70;2.60;;;15.20;94.80;;;;;;5430143;25;20792;-71
2024/04/15 12:04:56;;;;;;;2.40;2.20;;;15.30;95.10;;;;;;5453738;26;20535;-71
2024/04/15 12:07:22;;;;;;;4.00;2.13;;;15.30;94.80;;;;;;5463242;26;21201;-71
2024/04/15 12:09:54;;;;;;;3.13;2.83;;;15.40;94.40;;;;;;5481540;25;20485;-71
2024/04/15 12:12:20;;;;;;;3.57;2.40;;;15.40;94.70;;;;;;5483359;25;20465;-72
2024/04/15 12:14:48;;;;;;;2.80;2.50;;;15.40;94.20;;;;;;5482456;25;20529;-71
2024/04/15 12:17:14;;;;;;;5.03;2.60;;;15.50;93.90;;;;;;5487234;25;20549;-71
2024/04/15 12:19:43;;;;;;;2.87;2.67;;;15.60;94.00;;;;;;5484653;25;20580;-71
2024/04/15 12:22:09;;;;;;;6.73;3.27;;;15.70;93.50;;;;;;5488093;25;20545;-71
2024/04/15 12:24:37;;;;;;;3.00;2.53;;;15.70;93.40;;;;;;5486400;25;20572;-71
2024/04/15 12:27:07;;;;;;;3.70;2.27;;;15.70;92.90;;;;;;5486822;25;20628;-72
2024/04/15 12:29:35;;;;;;;3.73;2.37;;;15.70;92.90;;;;;;5488273;25;20469;-72
2024/04/15 12:32:06;;;;;;;5.03;3.80;;;15.80;92.90;;;;;;5492945;25;20507;-71
2024/04/15 12:34:40;;;;;;;4.23;3.83;;;15.80;93.00;;;;;;5489935;25;20549;-70
2024/04/15 12:37:59;;;;;;;5.50;3.50;;;15.90;93.10;;;;;;5482024;25;20470;-68
2024/04/15 12:40:48;;;;;;;2.53;2.33;;;15.90;92.70;;;;;;5474437;25;20593;-71
2024/04/15 12:43:17;;;;;;;3.70;3.40;;;15.90;92.40;;;;;;5483534;25;20947;-71
2024/04/15 12:45:46;;;;;;;2.70;2.30;;;16.00;92.60;;;;;;5486950;25;20612;-71
2024/04/15 12:48:14;;;;;;;2.93;2.57;;;16.00;92.60;;;;;;5484715;25;20522;-71
2024/04/15 12:50:45;;;;;;;3.63;2.97;;;16.00;92.50;;;;;;5452227;26;20474;-72
2024/04/15 12:53:12;;;;;;;3.77;2.33;;;15.90;92.30;;;;;;5470121;26;20466;-71